Time;durP1;ratioP1;P1;durP2;ratioP2;P2;SDS_P1;SDS_P2;PMS_P1;PMS_P2;Temp;Humidity;BMP_temperature;BMP_pressure;BME280_temperature;BME280_humidity;BME280_pressure;Samples;Min_cycle;Max_cycle;Signal;HPM_P1;HPM_P2
2021/10/19 00:01:19;;;;;;;261.73;235.48;;;;;;;7.59;100.00;102190.53;5063748;28;20075;-77
2021/10/19 00:03:47;;;;;;;286.15;258.13;;;;;;;7.61;100.00;102188.59;5057335;28;20049;-78
2021/10/19 00:06:14;;;;;;;266.50;239.20;;;;;;;7.75;100.00;102197.81;5060195;28;20046;-77
2021/10/19 00:08:42;;;;;;;233.18;209.82;;;;;;;7.77;100.00;102195.84;5060762;28;20470;-78
2021/10/19 00:11:10;;;;;;;228.07;205.77;;;;;;;7.68;100.00;102197.56;5060214;28;20049;-77
2021/10/19 00:13:37;;;;;;;252.32;228.45;;;;;;;7.80;100.00;102199.00;5066155;28;20049;-79
2021/10/19 00:16:05;;;;;;;264.13;239.98;;;;;;;8.02;100.00;102192.44;5066265;28;20087;-78
2021/10/19 00:18:32;;;;;;;282.52;256.75;;;;;;;7.87;100.00;102191.31;5063233;28;20059;-79
2021/10/19 00:20:59;;;;;;;254.25;230.02;;;;;;;7.86;100.00;102191.47;5061323;28;20041;-79
2021/10/19 00:23:26;;;;;;;281.25;255.95;;;;;;;7.89;100.00;102191.97;5065477;28;20045;-77
2021/10/19 00:25:54;;;;;;;251.40;229.13;;;;;;;7.86;100.00;102188.81;5058527;28;20045;-78
2021/10/19 00:28:21;;;;;;;237.38;216.07;;;;;;;7.92;100.00;102196.16;5062809;28;20079;-77
2021/10/19 00:30:48;;;;;;;245.75;223.82;;;;;;;7.82;100.00;102198.06;5066419;28;20572;-79
2021/10/19 00:33:15;;;;;;;243.40;222.48;;;;;;;7.88;100.00;102200.91;5061096;28;20114;-78
2021/10/19 00:35:42;;;;;;;252.45;230.60;;;;;;;7.97;100.00;102192.06;5064217;28;20044;-78
2021/10/19 00:38:10;;;;;;;232.07;211.95;;;;;;;8.09;100.00;102197.13;5063185;28;20053;-78
2021/10/19 00:40:37;;;;;;;241.05;219.40;;;;;;;7.96;100.00;102197.53;5060741;28;20071;-79
2021/10/19 00:43:06;;;;;;;245.48;223.88;;;;;;;8.07;100.00;102202.56;5066723;28;20045;-80
2021/10/19 00:45:34;;;;;;;247.35;225.48;;;;;;;8.01;100.00;102196.06;5060619;28;20044;-80
2021/10/19 00:48:01;;;;;;;252.18;230.32;;;;;;;8.01;100.00;102197.88;5057418;28;20132;-78
2021/10/19 00:50:28;;;;;;;264.50;239.88;;;;;;;7.90;100.00;102192.84;5065994;28;20090;-78
2021/10/19 00:52:57;;;;;;;280.00;254.30;;;;;;;8.06;100.00;102197.44;5061166;28;20154;-78
2021/10/19 00:55:24;;;;;;;255.65;232.38;;;;;;;8.22;100.00;102189.59;5063033;28;20053;-78
2021/10/19 00:57:51;;;;;;;262.73;239.07;;;;;;;8.22;100.00;102195.72;5065966;28;20582;-78
2021/10/19 01:00:19;;;;;;;252.10;227.27;;;;;;;8.23;100.00;102197.41;5058717;28;20820;-78
2021/10/19 01:02:47;;;;;;;254.90;231.55;;;;;;;8.14;100.00;102192.19;5063890;28;20045;-78
2021/10/19 01:05:14;;;;;;;256.45;233.55;;;;;;;8.15;100.00;102193.88;5062880;28;20072;-78
2021/10/19 01:07:43;;;;;;;261.45;237.35;;;;;;;8.07;100.00;102199.09;5062946;28;20048;-78
2021/10/19 01:10:11;;;;;;;263.38;239.00;;;;;;;8.11;100.00;102197.78;5064666;28;20501;-78
2021/10/19 01:12:39;;;;;;;273.15;248.00;;;;;;;8.15;100.00;102188.56;5064237;28;20049;-79
2021/10/19 01:15:12;;;;;;;261.83;237.23;;;;;;;8.14;100.00;102203.63;5063159;28;20069;-78
2021/10/19 01:17:50;;;;;;;299.42;272.40;;;;;;;8.16;100.00;102193.69;5055258;28;20524;-79
2021/10/19 01:20:20;;;;;;;269.25;244.88;;;;;;;8.21;100.00;102193.25;5058260;28;20095;-77
2021/10/19 01:22:47;;;;;;;262.77;238.18;;;;;;;8.17;100.00;102195.38;5063077;28;20048;-79
2021/10/19 01:25:17;;;;;;;264.40;239.63;;;;;;;8.29;100.00;102197.75;5057562;28;20075;-78
2021/10/19 01:27:51;;;;;;;267.58;243.23;;;;;;;8.24;100.00;102204.34;5059278;28;20378;-79
2021/10/19 01:30:18;;;;;;;254.45;231.35;;;;;;;8.28;100.00;102202.22;5062806;28;20041;-77
2021/10/19 01:32:45;;;;;;;256.13;232.93;;;;;;;8.29;100.00;102197.75;5056226;28;20050;-78
2021/10/19 01:35:13;;;;;;;262.48;238.40;;;;;;;8.33;100.00;102199.94;5065277;28;20045;-78
2021/10/19 01:37:42;;;;;;;286.85;260.02;;;;;;;8.30;100.00;102204.72;5065512;28;20048;-77
2021/10/19 01:40:13;;;;;;;271.02;244.82;;;;;;;8.13;100.00;102199.28;5062453;28;20444;-78
2021/10/19 01:42:40;;;;;;;259.63;234.65;;;;;;;8.19;100.00;102203.16;5053941;28;20087;-78
2021/10/19 01:45:13;;;;;;;294.17;264.98;;;;;;;8.23;100.00;102205.34;5063881;28;20053;-78
2021/10/19 01:47:40;;;;;;;311.13;280.40;;;;;;;8.26;100.00;102204.22;5053826;28;20124;-77
2021/10/19 01:50:08;;;;;;;295.50;266.95;;;;;;;8.19;100.00;102206.63;5060425;28;20052;-77
2021/10/19 01:52:37;;;;;;;315.50;286.00;;;;;;;8.21;100.00;102204.66;5060568;28;20040;-77
2021/10/19 01:55:09;;;;;;;285.75;259.08;;;;;;;8.27;100.00;102201.41;5061047;28;20461;-77
2021/10/19 01:57:36;;;;;;;280.27;254.05;;;;;;;8.28;100.00;102204.88;5054913;28;20053;-77
2021/10/19 02:02:46;;;;;;;288.02;263.40;;;;;;;8.21;100.00;102212.59;5099153;22;20095;-77
2021/10/19 02:05:13;;;;;;;273.77;249.07;;;;;;;8.15;100.00;102213.22;5067337;28;20118;-77
2021/10/19 02:07:40;;;;;;;271.13;247.75;;;;;;;8.16;100.00;102211.41;5061426;28;20048;-77
2021/10/19 02:10:10;;;;;;;282.88;257.85;;;;;;;8.19;100.00;102211.09;5064240;28;20464;-79
2021/10/19 02:12:37;;;;;;;265.23;242.32;;;;;;;8.17;100.00;102219.19;5064085;28;20072;-76
2021/10/19 02:15:05;;;;;;;279.08;254.38;;;;;;;8.18;100.00;102220.84;5059015;28;20114;-77
2021/10/19 02:17:32;;;;;;;262.55;239.43;;;;;;;8.08;100.00;102220.13;5061894;28;20056;-78
2021/10/19 02:20:00;;;;;;;285.63;260.77;;;;;;;8.03;100.00;102215.25;5060433;28;20457;-77
2021/10/19 02:22:27;;;;;;;302.65;276.05;;;;;;;8.10;100.00;102231.34;5055359;28;20559;-77
2021/10/19 02:24:55;;;;;;;259.77;237.43;;;;;;;8.18;100.00;102227.97;5064347;28;20106;-77
2021/10/19 02:27:23;;;;;;;268.55;245.68;;;;;;;8.10;100.00;102233.19;5066756;28;20044;-78
2021/10/19 02:29:50;;;;;;;264.40;242.43;;;;;;;8.04;100.00;102231.97;5067161;28;20070;-77
2021/10/19 02:32:18;;;;;;;255.75;233.25;;;;;;;8.10;100.00;102227.88;5075930;28;20114;-78
2021/10/19 02:34:45;;;;;;;249.85;227.63;;;;;;;8.11;100.00;102234.84;5063640;28;20049;-77
2021/10/19 02:37:12;;;;;;;245.60;223.85;;;;;;;8.13;100.00;102236.34;5062167;28;20404;-77
2021/10/19 02:39:39;;;;;;;254.55;232.55;;;;;;;8.18;100.00;102233.25;5059979;28;20044;-77
2021/10/19 02:42:06;;;;;;;241.45;220.27;;;;;;;8.16;100.00;102233.38;5059203;28;20510;-77
2021/10/19 02:44:34;;;;;;;257.95;236.85;;;;;;;8.21;100.00;102235.59;5074628;28;20032;-78
2021/10/19 02:47:02;;;;;;;246.35;225.43;;;;;;;8.14;100.00;102234.53;5066472;28;20053;-77
2021/10/19 02:49:33;;;;;;;221.98;202.85;;;;;;;8.08;100.00;102243.94;5060325;28;20392;-77
2021/10/19 02:52:07;;;;;;;228.63;209.07;;;;;;;8.22;100.00;102246.00;5064551;28;20057;-77
2021/10/19 02:54:36;;;;;;;248.38;227.95;;;;;;;8.21;100.00;102238.25;5070594;28;20155;-77
2021/10/19 02:57:13;;;;;;;247.55;226.27;;;;;;;8.30;100.00;102245.25;5074816;28;20079;-78
2021/10/19 02:59:41;;;;;;;243.60;222.57;;;;;;;8.17;100.00;102248.31;5063218;28;20103;-78
2021/10/19 03:02:07;;;;;;;254.50;232.55;;;;;;;8.09;100.00;102256.16;5064703;28;20057;-78
2021/10/19 03:04:34;;;;;;;230.80;210.82;;;;;;;8.12;100.00;102260.34;5063605;28;20110;-77
2021/10/19 03:07:01;;;;;;;241.77;220.95;;;;;;;8.14;100.00;102263.63;5053864;28;20134;-78
2021/10/19 03:09:28;;;;;;;204.73;186.30;;;;;;;8.17;100.00;102255.38;5062411;28;20049;-77
2021/10/19 03:11:54;;;;;;;226.10;206.38;;;;;;;8.16;100.00;102259.03;5053177;28;20046;-77
2021/10/19 03:14:22;;;;;;;254.30;232.50;;;;;;;8.20;100.00;102263.88;5065006;28;20063;-78
2021/10/19 03:16:50;;;;;;;242.60;221.50;;;;;;;8.21;100.00;102270.00;5064827;28;20105;-77
2021/10/19 03:19:17;;;;;;;246.52;225.93;;;;;;;8.23;100.00;102281.28;5054226;28;20843;-77
2021/10/19 03:21:44;;;;;;;247.52;226.20;;;;;;;8.04;100.00;102272.50;5056656;28;20477;-78
2021/10/19 03:24:10;;;;;;;217.27;198.45;;;;;;;8.14;100.00;102275.09;5061384;28;20040;-78
2021/10/19 03:26:37;;;;;;;229.45;209.32;;;;;;;8.09;100.00;102271.22;5051007;28;20045;-77
2021/10/19 03:29:06;;;;;;;253.07;231.38;;;;;;;8.18;100.00;102268.50;5063062;28;20057;-77
2021/10/19 03:31:35;;;;;;;242.15;221.48;;;;;;;8.04;100.00;102266.38;5063926;28;20079;-77
2021/10/19 03:34:11;;;;;;;250.50;229.00;;;;;;;8.07;100.00;102274.00;5072872;28;20045;-77
2021/10/19 03:36:40;;;;;;;228.57;208.90;;;;;;;8.11;100.00;102272.75;5067148;28;20037;-78
2021/10/19 03:39:08;;;;;;;251.77;230.57;;;;;;;8.12;100.00;102277.03;5069215;28;20056;-77
2021/10/19 03:41:35;;;;;;;225.15;205.75;;;;;;;8.07;100.00;102278.47;5073335;28;20465;-78
2021/10/19 03:44:01;;;;;;;255.20;234.32;;;;;;;8.10;100.00;102275.53;5067123;28;20045;-78
2021/10/19 03:46:28;;;;;;;257.73;236.38;;;;;;;8.12;100.00;102273.56;5068908;28;20048;-80
2021/10/19 03:48:55;;;;;;;226.07;206.55;;;;;;;8.11;100.00;102271.88;5063612;28;20454;-78
2021/10/19 03:51:23;;;;;;;207.27;188.98;;;;;;;8.02;100.00;102274.47;5051095;28;20049;-78
2021/10/19 03:53:50;;;;;;;240.10;219.90;;;;;;;8.11;100.00;102285.13;5057162;28;20390;-77
2021/10/19 03:56:16;;;;;;;238.98;218.75;;;;;;;8.15;100.00;102289.16;5070642;28;20082;-77
2021/10/19 03:58:43;;;;;;;260.95;239.82;;;;;;;8.15;100.00;102284.69;5071620;28;20458;-77
2021/10/19 04:01:10;;;;;;;229.90;210.25;;;;;;;8.04;100.00;102291.00;5072550;28;20485;-77
2021/10/19 04:03:37;;;;;;;233.95;213.25;;;;;;;8.10;100.00;102286.09;5067824;28;20083;-77
2021/10/19 04:06:04;;;;;;;243.85;223.77;;;;;;;8.19;100.00;102295.78;5054725;28;20060;-77
2021/10/19 04:08:32;;;;;;;211.15;192.23;;;;;;;8.18;100.00;102299.44;5061976;28;20052;-77
2021/10/19 04:10:59;;;;;;;233.43;213.18;;;;;;;8.15;100.00;102302.38;5064283;28;20104;-78
2021/10/19 04:13:25;;;;;;;233.82;213.45;;;;;;;8.12;100.00;102300.03;5073672;28;20581;-80
2021/10/19 04:15:53;;;;;;;234.52;214.38;;;;;;;8.06;100.00;102301.47;5074984;28;20075;-78
2021/10/19 04:18:20;;;;;;;222.88;203.15;;;;;;;8.09;100.00;102302.97;5065755;28;20079;-78
2021/10/19 04:20:46;;;;;;;211.45;192.40;;;;;;;8.03;100.00;102307.06;5060928;28;20048;-77
2021/10/19 04:23:13;;;;;;;206.52;188.23;;;;;;;7.91;100.00;102308.25;5060936;28;20045;-77
2021/10/19 04:25:42;;;;;;;196.45;179.25;;;;;;;8.13;100.00;102312.28;5065964;28;20118;-79
2021/10/19 04:28:10;;;;;;;193.05;175.07;;;;;;;7.59;100.00;102304.25;5068998;28;20056;-79
2021/10/19 04:30:38;;;;;;;220.55;200.68;;;;;;;7.58;100.00;102308.72;5077604;28;20049;-77
2021/10/19 04:33:05;;;;;;;221.60;201.73;;;;;;;7.61;100.00;102310.22;5064514;28;20051;-78
2021/10/19 04:35:35;;;;;;;210.15;190.73;;;;;;;7.73;100.00;102308.22;5064516;28;20044;-78
2021/10/19 04:38:01;;;;;;;205.68;186.50;;;;;;;7.55;100.00;102316.94;5064136;28;20074;-77
2021/10/19 04:40:28;;;;;;;218.68;198.73;;;;;;;7.64;100.00;102317.03;5061922;28;20455;-77
2021/10/19 04:42:56;;;;;;;198.02;179.52;;;;;;;7.66;100.00;102318.56;5066166;28;20104;-78
2021/10/19 04:45:23;;;;;;;202.27;184.77;;;;;;;7.69;100.00;102322.75;5067739;28;20050;-77
2021/10/19 04:47:50;;;;;;;205.65;188.13;;;;;;;7.80;100.00;102336.56;5059522;28;20080;-79
2021/10/19 04:50:17;;;;;;;195.82;178.40;;;;;;;7.72;100.00;102333.84;5058338;28;20281;-79
2021/10/19 04:52:43;;;;;;;191.38;172.90;;;;;;;7.58;100.00;102336.97;5057162;28;20079;-76
2021/10/19 04:55:10;;;;;;;215.10;194.57;;;;;;;7.83;100.00;102332.78;5064928;28;20354;-77
2021/10/19 04:57:37;;;;;;;196.90;176.52;;;;;;;7.78;100.00;102341.19;5062820;28;20053;-77
2021/10/19 05:00:07;;;;;;;271.33;200.43;;;;;;;7.81;100.00;102345.34;5059485;28;20133;-78
2021/10/19 05:02:34;;;;;;;242.82;193.73;;;;;;;8.06;100.00;102343.81;5070687;28;20053;-77
2021/10/19 05:05:09;;;;;;;220.77;198.48;;;;;;;7.98;100.00;102346.34;5067031;28;20049;-78
2021/10/19 05:07:37;;;;;;;228.43;205.32;;;;;;;7.96;100.00;102351.81;5068756;28;20049;-78
2021/10/19 05:10:04;;;;;;;247.07;222.02;;;;;;;8.21;100.00;102355.53;5064935;28;20072;-77
2021/10/19 05:12:32;;;;;;;260.40;231.43;;;;;;;8.03;100.00;102366.09;5067655;28;20425;-77
2021/10/19 05:14:58;;;;;;;247.82;218.77;;;;;;;8.12;100.00;102368.84;5067007;28;20048;-77
2021/10/19 05:17:27;;;;;;;269.13;223.27;;;;;;;7.96;100.00;102377.44;5062004;28;20102;-78
2021/10/19 05:19:56;;;;;;;250.10;224.15;;;;;;;8.10;100.00;102379.56;5070159;28;20057;-77
2021/10/19 05:22:23;;;;;;;251.40;225.18;;;;;;;8.08;100.00;102380.69;5065348;28;20048;-78
2021/10/19 05:24:50;;;;;;;249.98;224.90;;;;;;;8.18;100.00;102382.31;5068775;28;20045;-78
2021/10/19 05:27:22;;;;;;;265.73;238.40;;;;;;;8.23;100.00;102382.69;5066540;28;20072;-78
2021/10/19 05:29:49;;;;;;;;;;;;;;;8.29;100.00;102383.91;5068927;28;20048;-79
2021/10/19 05:32:17;;;;;;;253.57;228.10;;;;;;;8.36;100.00;102390.25;5069919;28;19921;-79
2021/10/19 05:34:45;;;;;;;235.73;211.90;;;;;;;8.21;100.00;102391.75;5074737;28;20091;-79
2021/10/19 05:37:13;;;;;;;224.95;202.57;;;;;;;8.29;100.00;102389.22;5062979;28;20076;-80
2021/10/19 05:39:41;;;;;;;236.63;213.13;;;;;;;8.27;100.00;102389.34;5072179;28;20402;-78
2021/10/19 05:42:08;;;;;;;243.15;219.93;;;;;;;8.34;100.00;102391.41;5049692;28;20050;-78
2021/10/19 05:44:35;;;;;;;286.92;257.65;;;;;;;8.45;100.00;102392.03;5059192;28;20045;-77
2021/10/19 05:47:01;;;;;;;335.10;298.35;;;;;;;8.53;100.00;102398.38;5072411;28;20052;-77
2021/10/19 05:49:30;;;;;;;316.27;283.27;;;;;;;8.62;100.00;102400.13;5062262;28;20119;-78
2021/10/19 05:51:59;;;;;;;290.17;262.30;;;;;;;8.79;100.00;102401.94;5064425;28;20059;-78
2021/10/19 05:54:31;;;;;;;297.33;268.85;;;;;;;8.94;100.00;102411.00;5051506;28;20088;-78
2021/10/19 05:56:58;;;;;;;264.33;239.27;;;;;;;8.94;100.00;102410.16;5064378;28;20057;-79
2021/10/19 05:59:25;;;;;;;265.95;240.02;;;;;;;8.82;100.00;102409.56;5069676;28;20303;-80
2021/10/19 06:01:52;;;;;;;252.60;229.02;;;;;;;9.00;100.00;102420.16;5062328;28;20125;-79
2021/10/19 06:04:18;;;;;;;254.45;231.70;;;;;;;9.15;100.00;102412.47;5069151;28;20462;-78
2021/10/19 06:06:54;;;;;;;249.15;226.70;;;;;;;9.16;100.00;102412.31;5067266;28;20103;-78
2021/10/19 06:09:23;;;;;;;252.57;230.10;;;;;;;9.19;100.00;102411.19;5066562;28;20060;-78
2021/10/19 06:11:50;;;;;;;232.73;212.45;;;;;;;9.11;100.00;102417.25;5063830;28;20099;-78
2021/10/19 06:14:17;;;;;;;227.73;208.07;;;;;;;9.17;100.00;102414.00;5066762;28;20052;-78
2021/10/19 06:16:44;;;;;;;249.80;228.48;;;;;;;9.30;100.00;102421.53;5066215;28;20111;-78
2021/10/19 06:19:12;;;;;;;237.00;216.82;;;;;;;9.28;100.00;102425.31;5065040;28;20107;-79
2021/10/19 06:21:38;;;;;;;221.07;201.45;;;;;;;9.22;100.00;102424.13;5059012;28;20051;-78
2021/10/19 06:24:05;;;;;;;249.43;227.20;;;;;;;9.41;100.00;102425.75;5067888;28;20045;-78
2021/10/19 06:26:35;;;;;;;243.35;222.10;;;;;;;9.51;100.00;102429.13;5065405;28;20447;-78
2021/10/19 06:29:06;;;;;;;250.60;229.25;;;;;;;9.51;100.00;102436.25;5056608;28;20119;-79
2021/10/19 06:31:33;;;;;;;245.60;224.52;;;;;;;9.66;100.00;102439.97;5061100;28;20479;-76
2021/10/19 06:34:00;;;;;;;298.27;273.35;;;;;;;12.03;100.00;102448.09;5053969;28;20041;-78
2021/10/19 06:36:28;;;;;;;304.00;279.20;;;;;;;12.44;100.00;102437.25;5057593;28;20045;-77
2021/10/19 06:38:55;;;;;;;237.93;219.65;;;;;;;12.47;100.00;102441.41;5060220;28;20052;-78
2021/10/19 06:41:23;;;;;;;183.20;168.25;;;;;;;11.02;100.00;102434.53;5052754;28;20057;-77
2021/10/19 06:43:51;;;;;;;187.68;171.48;;;;;;;10.58;100.00;102427.69;5052706;28;20037;-78
2021/10/19 06:46:18;;;;;;;215.93;197.48;;;;;;;10.34;100.00;102435.63;5053975;28;20049;-78
2021/10/19 06:48:45;;;;;;;231.60;211.63;;;;;;;10.29;100.00;102433.47;5052498;28;20048;-76
2021/10/19 06:51:11;;;;;;;231.55;212.77;;;;;;;10.33;100.00;102440.09;5051123;28;20111;-77
2021/10/19 06:53:38;;;;;;;214.35;197.05;;;;;;;10.21;100.00;102447.50;5047156;28;20053;-78
2021/10/19 06:56:05;;;;;;;201.93;184.40;;;;;;;10.21;100.00;102452.81;5050433;28;20473;-78
2021/10/19 06:58:32;;;;;;;213.55;195.77;;;;;;;10.39;100.00;102444.75;5048248;28;20045;-77
2021/10/19 07:01:02;;;;;;;207.50;188.98;;;;;;;10.56;100.00;102443.00;5050251;28;20049;-77
2021/10/19 07:03:29;;;;;;;197.55;179.88;;;;;;;10.56;100.00;102445.66;5051143;28;20099;-76
2021/10/19 07:06:00;;;;;;;207.60;190.20;;;;;;;10.61;100.00;102442.47;5057270;28;20114;-77
2021/10/19 07:08:27;;;;;;;198.13;181.82;;;;;;;10.67;100.00;102441.81;5054079;28;20045;-77
2021/10/19 07:10:54;;;;;;;188.18;172.55;;;;;;;10.73;100.00;102452.63;5059217;28;20095;-77
2021/10/19 07:13:23;;;;;;;198.63;181.40;;;;;;;11.03;100.00;102460.13;5061026;28;20530;-76
2021/10/19 07:15:52;;;;;;;163.25;149.07;;;;;;;10.92;100.00;102464.78;5056639;28;20041;-77
2021/10/19 07:18:21;;;;;;;171.50;156.38;;;;;;;11.03;100.00;102455.63;5045204;28;20049;-77
2021/10/19 07:20:48;;;;;;;150.15;137.27;;;;;;;11.05;100.00;102458.97;5053045;28;20106;-77
2021/10/19 07:23:15;;;;;;;161.00;147.23;;;;;;;11.20;100.00;102459.13;5059384;28;20045;-76
2021/10/19 07:25:41;;;;;;;167.98;153.75;;;;;;;11.42;100.00;102455.75;5063173;28;20468;-77
2021/10/19 07:28:08;;;;;;;163.75;150.32;;;;;;;11.50;100.00;102460.25;5056999;28;20103;-77
2021/10/19 07:30:35;;;;;;;148.88;136.20;;;;;;;11.62;100.00;102466.03;5059288;28;20106;-76
2021/10/19 07:33:01;;;;;;;157.88;144.60;;;;;;;11.84;100.00;102465.31;5056866;28;20048;-77
2021/10/19 07:35:30;;;;;;;165.27;151.70;;;;;;;12.49;100.00;102469.50;5051897;28;20111;-76
2021/10/19 07:37:56;;;;;;;136.80;125.75;;;;;;;12.53;100.00;102464.69;5055983;28;20460;-77
2021/10/19 07:40:23;;;;;;;172.63;158.40;;;;;;;13.53;100.00;102469.88;5060761;28;20049;-76
2021/10/19 07:42:51;;;;;;;144.32;132.40;;;;;;;13.73;100.00;102462.13;5048408;28;20040;-76
2021/10/19 07:45:18;;;;;;;105.97;97.13;;;;;;;13.71;100.00;102466.84;5057693;28;20111;-78
2021/10/19 07:47:47;;;;;;;88.00;81.10;;;;;;;13.79;100.00;102458.72;5061573;28;20052;-77
2021/10/19 07:50:16;;;;;;;71.65;65.63;;;;;;;13.94;100.00;102466.72;5056918;28;20041;-76
2021/10/19 07:52:45;;;;;;;70.65;65.07;;;;;;;14.27;100.00;102460.97;5057461;28;20443;-78
2021/10/19 07:55:13;;;;;;;70.22;64.45;;;;;;;14.29;100.00;102470.47;5056304;28;20118;-78
2021/10/19 07:57:44;;;;;;;72.05;66.05;;;;;;;14.52;100.00;102456.94;5057006;28;20417;-78
2021/10/19 08:00:12;;;;;;;75.40;69.32;;;;;;;15.03;100.00;102456.00;5054506;28;20083;-75
2021/10/19 08:02:41;;;;;;;62.38;56.97;;;;;;;14.91;100.00;102453.00;5056441;28;21373;-77
2021/10/19 08:05:12;;;;;;;57.08;52.20;;;;;;;14.78;100.00;102448.38;5058961;28;20053;-76
2021/10/19 08:07:40;;;;;;;57.42;52.72;;;;;;;14.85;100.00;102449.25;5050547;28;20060;-78
2021/10/19 08:10:10;;;;;;;64.20;58.80;;;;;;;15.40;100.00;102449.50;5055900;28;20536;-76
2021/10/19 08:12:36;;;;;;;64.10;58.63;;;;;;;15.99;100.00;102450.88;5053379;28;20477;-76
2021/10/19 08:15:04;;;;;;;60.17;55.67;;;;;;;16.74;100.00;102438.28;5058396;28;20044;-77
2021/10/19 08:17:31;;;;;;;56.05;51.67;;;;;;;17.02;100.00;102439.97;4990576;28;20048;-77
2021/10/19 08:20:00;;;;;;;53.88;49.83;;;;;;;17.09;100.00;102440.78;5054015;28;20048;-76
2021/10/19 08:22:28;;;;;;;46.70;43.13;;;;;;;17.04;100.00;102433.34;5047945;28;20737;-76
2021/10/19 08:24:55;;;;;;;44.70;41.53;;;;;;;17.29;100.00;102430.84;5056787;28;20394;-75
2021/10/19 08:27:23;;;;;;;42.60;39.65;;;;;;;17.56;100.00;102430.78;5055740;28;20487;-77
2021/10/19 08:29:50;;;;;;;46.47;43.28;;;;;;;17.51;100.00;102434.09;5058607;28;20044;-77
2021/10/19 08:32:16;;;;;;;40.50;37.50;;;;;;;17.79;100.00;102430.31;5055504;28;20041;-77
2021/10/19 08:34:43;;;;;;;40.75;37.97;;;;;;;17.94;100.00;102436.25;5057744;28;20106;-76
2021/10/19 08:37:10;;;;;;;42.17;39.15;;;;;;;17.92;100.00;102432.16;5048564;28;20130;-77
2021/10/19 08:39:37;;;;;;;43.17;40.28;;;;;;;18.17;100.00;102434.94;5051366;28;20045;-78
2021/10/19 08:42:04;;;;;;;41.53;38.47;;;;;;;18.77;100.00;102424.63;5053286;28;20111;-77
2021/10/19 08:44:33;;;;;;;40.60;37.67;;;;;;;19.11;100.00;102423.28;5051662;28;20096;-78
2021/10/19 08:47:01;;;;;;;41.75;39.15;;;;;;;18.90;100.00;102426.38;5059457;28;20053;-77
2021/10/19 08:49:27;;;;;;;39.95;37.28;;;;;;;19.04;100.00;102414.47;5056898;28;20151;-76
2021/10/19 08:51:54;;;;;;;38.83;35.78;;;;;;;18.72;100.00;102417.16;5053794;28;20424;-77
2021/10/19 08:54:21;;;;;;;38.13;35.60;;;;;;;18.96;100.00;102412.03;5063066;28;21072;-76
2021/10/19 08:56:47;;;;;;;39.03;36.40;;;;;;;18.26;100.00;102425.56;5059766;28;20041;-76
2021/10/19 08:59:22;;;;;;;37.60;34.88;;;;;;;19.27;100.00;102421.88;5058255;28;20114;-76
2021/10/19 09:01:55;;;;;;;36.63;34.10;;;;;;;20.12;100.00;102419.28;5060523;28;20067;-76
2021/10/19 09:04:21;;;;;;;37.45;34.85;;;;;;;19.97;100.00;102410.78;5056453;28;20053;-77
2021/10/19 09:06:48;;;;;;;36.45;33.95;;;;;;;20.54;89.84;102407.69;5048455;28;20119;-77
2021/10/19 09:09:20;;;;;;;37.40;34.80;;;;;;;19.86;100.00;102423.13;5054208;28;20543;-77
2021/10/19 09:11:48;;;;;;;35.33;33.03;;;;;;;20.09;89.22;102413.50;5055892;28;20446;-78
2021/10/19 09:14:16;;;;;;;37.28;34.40;;;;;;;20.26;80.18;102416.38;5054097;28;20133;-75
2021/10/19 09:16:45;;;;;;;38.03;35.53;;;;;;;21.31;97.32;102409.50;5051951;28;20473;-78
2021/10/19 09:19:15;;;;;;;39.00;36.30;;;;;;;19.72;80.61;102412.72;5050792;28;20111;-76
2021/10/19 09:21:43;;;;;;;37.80;35.25;;;;;;;19.46;100.00;102403.88;5059736;28;20048;-78
2021/10/19 09:24:22;;;;;;;35.75;33.08;;;;;;;19.82;98.46;102408.47;5051133;28;20049;-76
2021/10/19 09:26:56;;;;;;;35.47;32.88;;;;;;;18.22;100.00;102411.72;5059553;28;20048;-78
2021/10/19 09:29:23;;;;;;;36.22;33.42;;;;;;;19.52;100.00;102411.06;5057765;28;20439;-77
2021/10/19 09:31:52;;;;;;;35.95;33.55;;;;;;;18.21;100.00;102412.75;5051222;28;20045;-78
2021/10/19 09:34:20;;;;;;;35.72;33.42;;;;;;;18.98;100.00;102397.31;5062328;28;20114;-78
2021/10/19 09:36:50;;;;;;;36.83;34.22;;;;;;;20.48;88.05;102390.50;5048934;28;20558;-79
2021/10/19 09:39:28;;;;;;;37.78;35.00;;;;;;;18.92;97.86;102392.00;5054213;28;20053;-77
2021/10/19 09:41:55;;;;;;;36.90;34.35;;;;;;;21.32;79.90;102381.41;5053934;28;20045;-77
2021/10/19 09:44:22;;;;;;;36.78;34.22;;;;;;;21.27;74.33;102385.66;5046035;28;20046;-76
2021/10/19 09:46:50;;;;;;;37.58;35.08;;;;;;;21.71;85.29;102383.31;5048974;28;20042;-76
2021/10/19 09:49:21;;;;;;;38.53;35.78;;;;;;;21.07;70.94;102385.19;5051564;28;20440;-77
2021/10/19 09:51:48;;;;;;;39.38;36.72;;;;;;;21.09;67.77;102379.53;5054196;28;20443;-76
2021/10/19 09:54:20;;;;;;;37.75;35.00;;;;;;;20.25;74.95;102375.09;5055850;28;20489;-77
2021/10/19 09:56:47;;;;;;;39.03;36.45;;;;;;;21.92;65.62;102378.31;5058124;28;20045;-76
2021/10/19 09:59:16;;;;;;;39.72;37.10;;;;;;;20.75;64.74;102379.31;5052461;28;20060;-74
2021/10/19 10:01:44;;;;;;;39.85;37.05;;;;;;;20.16;81.45;102371.06;5055699;28;20037;-77
2021/10/19 10:04:11;;;;;;;37.20;34.28;;;;;;;20.73;72.60;102370.63;5051786;28;20473;-75
2021/10/19 10:06:41;;;;;;;38.22;35.63;;;;;;;20.47;67.65;102371.84;5046136;28;20114;-76
2021/10/19 10:09:09;;;;;;;39.60;36.63;;;;;;;20.87;69.31;102368.50;5055573;28;20068;-76
2021/10/19 10:11:39;;;;;;;39.63;36.85;;;;;;;20.05;73.92;102367.28;5052235;28;20106;-77
2021/10/19 10:14:07;;;;;;;37.10;34.70;;;;;;;21.52;61.32;102359.41;5049632;28;20497;-75
2021/10/19 10:16:43;;;;;;;40.58;37.67;;;;;;;20.54;82.00;102365.31;5057697;28;20119;-76
2021/10/19 10:19:12;;;;;;;41.05;38.35;;;;;;;20.66;70.09;102364.50;5048884;28;20053;-75
2021/10/19 10:21:47;;;;;;;39.33;36.92;;;;;;;20.87;62.41;102363.94;5052060;28;20102;-76
2021/10/19 10:24:15;;;;;;;42.50;39.70;;;;;;;19.31;75.51;102349.56;5059109;28;20041;-76
2021/10/19 10:26:42;;;;;;;42.20;39.70;;;;;;;21.16;68.17;102355.94;5054005;28;20080;-77
2021/10/19 10:29:10;;;;;;;39.78;37.40;;;;;;;20.73;72.68;102347.16;5058852;28;20110;-76
2021/10/19 10:31:49;;;;;;;39.63;37.28;;;;;;;21.07;60.97;102352.78;5049433;28;20045;-75
2021/10/19 10:34:15;;;;;;;36.47;34.17;;;;;;;20.64;69.39;102347.75;5057181;28;20476;-77
2021/10/19 10:36:47;;;;;;;39.25;36.95;;;;;;;21.12;63.79;102357.44;5052443;28;20461;-76
2021/10/19 10:39:15;;;;;;;41.92;39.10;;;;;;;19.89;97.87;102343.66;5053621;28;20041;-75
2021/10/19 10:41:44;;;;;;;40.63;38.13;;;;;;;19.29;100.00;102339.00;5057278;28;20049;-75
2021/10/19 10:44:12;;;;;;;38.22;35.92;;;;;;;20.71;99.09;102335.75;5061918;28;20045;-76
2021/10/19 10:46:40;;;;;;;39.50;37.20;;;;;;;20.89;85.70;102339.41;5060038;28;20048;-77
2021/10/19 10:49:11;;;;;;;37.97;35.53;;;;;;;22.05;68.39;102350.94;5057357;28;20511;-77
2021/10/19 10:51:40;;;;;;;39.75;37.17;;;;;;;21.75;61.64;102342.28;5051136;28;20045;-75
2021/10/19 10:54:08;;;;;;;40.83;38.40;;;;;;;22.29;66.04;102343.56;5057739;28;20045;-76
2021/10/19 10:56:44;;;;;;;40.67;38.35;;;;;;;22.25;64.22;102334.28;5052727;28;20041;-77
2021/10/19 10:59:11;;;;;;;40.08;37.58;;;;;;;23.64;49.80;102335.16;5055380;28;20048;-75
2021/10/19 11:01:38;;;;;;;39.47;37.08;;;;;;;22.63;58.01;102327.28;5053676;28;20470;-76
2021/10/19 11:04:07;;;;;;;40.47;37.97;;;;;;;22.50;55.31;102324.94;5055237;28;20049;-76